Time;durP1;ratioP1;P1;durP2;ratioP2;P2;SDS_P1;SDS_P2;PMS_P1;PMS_P2;Temp;Humidity;BMP_temperature;BMP_pressure;BME280_temperature;BME280_humidity;BME280_pressure;Samples;Min_cycle;Max_cycle;Signal;HPM_P1;HPM_P2
2021/03/17 00:00:29;;;;;;;17.92;8.68;;;;;;;7.71;88.87;99737.19;1628722;87;21861;-76
2021/03/17 00:03:20;;;;;;;11.57;6.70;;;;;;;7.79;88.97;99733.92;1635589;87;21244;-72
2021/03/17 00:06:14;;;;;;;20.12;10.18;;;;;;;7.86;88.87;99730.94;1631426;87;21297;-74
2021/03/17 00:09:07;;;;;;;15.72;8.55;;;;;;;7.85;88.66;99733.42;1648388;87;21437;-73
2021/03/17 00:11:58;;;;;;;16.42;9.65;;;;;;;7.97;89.12;99739.01;1605338;88;21805;-75
2021/03/17 00:14:51;;;;;;;14.78;8.73;;;;;;;8.16;89.01;99734.72;1652041;85;21220;-74
2021/03/17 00:17:41;;;;;;;13.88;7.72;;;;;;;8.33;88.91;99725.69;1610823;88;21393;-74
2021/03/17 00:20:32;;;;;;;10.48;7.53;;;;;;;8.39;88.19;99730.14;1592295;90;21763;-71
2021/03/17 00:23:23;;;;;;;12.60;8.13;;;;;;;8.38;87.96;99731.25;1653507;87;21366;-70
2021/03/17 00:26:14;;;;;;;12.15;7.20;;;;;;;8.31;87.66;99727.05;1598534;88;21381;-71
2021/03/17 00:29:04;;;;;;;14.03;7.42;;;;;;;8.24;87.66;99737.00;1592056;88;21416;-73
2021/03/17 00:31:55;;;;;;;12.00;6.75;;;;;;;8.20;87.68;99737.24;1591863;90;21294;-71
2021/03/17 00:34:46;;;;;;;15.28;8.03;;;;;;;8.17;87.66;99734.16;1592394;90;21242;-72
2021/03/17 00:37:37;;;;;;;14.35;8.05;;;;;;;8.14;87.79;99734.70;1592514;90;21376;-72
2021/03/17 00:40:27;;;;;;;13.25;8.35;;;;;;;8.15;88.04;99734.41;1592158;90;21307;-71
2021/03/17 00:43:20;;;;;;;14.35;8.63;;;;;;;8.17;88.01;99735.00;1600746;89;21240;-72
2021/03/17 00:46:10;;;;;;;12.90;7.12;;;;;;;8.15;87.96;99746.86;1563856;91;21399;-69
2021/03/17 00:48:44;;;;;;;10.82;6.12;;;;;;;8.13;87.98;99746.30;1631274;87;21292;-73
2021/03/17 00:51:18;;;;;;;13.03;7.00;;;;;;;8.06;88.03;99745.72;1614888;87;21396;-73
2021/03/17 00:54:08;;;;;;;11.05;6.22;;;;;;;8.01;88.25;99737.92;1653149;87;21398;-69
2021/03/17 00:56:43;;;;;;;13.38;7.35;;;;;;;8.00;88.37;99737.11;1618681;88;21218;-73
2021/03/17 00:59:17;;;;;;;9.33;5.53;;;;;;;7.97;88.40;99734.86;1636886;87;21292;-73
2021/03/17 01:01:49;;;;;;;11.33;5.92;;;;;;;8.04;88.80;99740.16;1618752;88;21380;-73
2021/03/17 01:04:23;;;;;;;9.35;5.95;;;;;;;8.07;88.64;99741.84;1652794;85;21200;-72
2021/03/17 01:06:56;;;;;;;9.03;5.58;;;;;;;8.05;88.64;99735.77;1618691;88;21368;-71
2021/03/17 01:09:28;;;;;;;7.17;4.87;;;;;;;8.07;88.68;99732.17;1652958;86;21864;-74
2021/03/17 01:12:01;;;;;;;8.58;5.05;;;;;;;8.09;88.62;99735.48;1606602;88;21367;-72
2021/03/17 01:14:35;;;;;;;7.53;4.78;;;;;;;8.10;88.68;99726.66;1588332;88;21516;-71
2021/03/17 01:17:08;;;;;;;9.53;6.17;;;;;;;8.10;88.69;99731.66;1604294;88;21305;-72
2021/03/17 01:19:40;;;;;;;9.98;6.10;;;;;;;8.09;88.71;99727.19;1616490;88;21742;-74
2021/03/17 01:22:14;;;;;;;8.08;5.62;;;;;;;8.18;88.99;99730.28;1618013;88;21237;-72
2021/03/17 01:24:46;;;;;;;11.28;6.92;;;;;;;8.24;88.84;99733.39;1622376;88;21289;-74
2021/03/17 01:27:21;;;;;;;9.30;6.05;;;;;;;8.21;88.64;99726.45;1638271;87;21293;-73
2021/03/17 01:29:56;;;;;;;9.10;6.33;;;;;;;8.17;88.57;99723.09;1637689;87;21717;-73
2021/03/17 01:32:28;;;;;;;9.68;6.83;;;;;;;8.16;88.63;99731.95;1632701;87;22254;-74
2021/03/17 01:35:01;;;;;;;10.68;7.15;;;;;;;8.18;88.75;99726.98;1626332;88;21228;-71
2021/03/17 01:37:33;;;;;;;11.33;6.70;;;;;;;8.22;88.69;99729.53;1636900;87;21785;-73
2021/03/17 01:40:08;;;;;;;10.08;6.87;;;;;;;8.22;88.57;99727.30;1625878;88;21190;-72
2021/03/17 01:42:41;;;;;;;10.15;6.47;;;;;;;8.23;88.69;99722.90;1625228;88;21285;-70
2021/03/17 01:45:15;;;;;;;16.20;8.33;;;;;;;8.27;88.64;99724.57;1626001;88;21873;-71
2021/03/17 01:47:51;;;;;;;10.85;7.20;;;;;;;8.28;88.46;99731.77;1625829;88;21379;-71
2021/03/17 01:50:31;;;;;;;12.00;7.78;;;;;;;8.28;88.47;99727.61;1625775;88;21371;-70
2021/03/17 01:53:09;;;;;;;14.85;8.03;;;;;;;8.29;88.32;99728.73;1622642;88;21379;-74
2021/03/17 01:55:42;;;;;;;11.93;7.85;;;;;;;8.28;88.24;99733.14;1625655;88;21809;-72
2021/03/17 01:58:15;;;;;;;12.40;7.90;;;;;;;8.34;88.24;99731.50;1616095;88;21335;-74
2021/03/17 02:00:47;;;;;;;14.70;6.97;;;;;;;8.35;87.97;99729.58;1626455;87;21213;-73
2021/03/17 02:03:20;;;;;;;13.98;6.08;;;;;;;8.31;87.81;99736.20;1626453;88;21236;-73
2021/03/17 02:05:53;;;;;;;13.88;7.28;;;;;;;8.29;87.79;99728.73;1626338;88;21233;-74
2021/03/17 02:08:34;;;;;;;14.73;7.62;;;;;;;8.29;87.77;99725.97;1626217;88;21217;-73
2021/03/17 02:11:07;;;;;;;10.82;6.60;;;;;;;8.34;87.87;99734.26;1626253;88;21271;-72
2021/03/17 02:14:10;;;;;;;16.95;7.72;;;;;;;8.34;87.58;99729.30;1626365;87;21197;-74
2021/03/17 02:17:01;;;;;;;16.02;7.45;;;;;;;8.29;87.38;99731.50;1637499;87;21765;-70
2021/03/17 02:20:05;;;;;;;17.95;7.95;;;;;;;8.36;87.61;99740.38;1651188;87;21358;-73
2021/03/17 02:22:51;;;;;;;20.15;8.28;;;;;;;8.38;87.27;99736.78;1619993;88;21237;-72
2021/03/17 02:25:45;;;;;;;11.57;7.28;;;;;;;8.35;87.12;99743.40;1624816;88;21257;-72
2021/03/17 02:28:57;;;;;;;19.87;7.45;;;;;;;8.40;87.15;99752.54;1614421;88;21245;-74
2021/03/17 02:32:00;;;;;;;14.95;7.30;;;;;;;8.38;86.82;99754.75;1601469;88;21257;-72
2021/03/17 02:34:39;;;;;;;16.87;7.92;;;;;;;8.33;86.84;99752.53;1633579;87;21350;-73
2021/03/17 02:37:20;;;;;;;16.50;7.00;;;;;;;8.26;86.73;99746.41;1632868;87;21387;-72
2021/03/17 02:40:08;;;;;;;11.35;5.97;;;;;;;8.19;86.67;99743.88;1634989;85;21204;-73
2021/03/17 02:42:53;;;;;;;11.40;7.10;;;;;;;8.17;86.67;99747.98;1639130;87;21729;-73
2021/03/17 02:45:30;;;;;;;22.52;7.20;;;;;;;8.15;86.72;99755.15;1623344;87;21301;-70
2021/03/17 02:48:22;;;;;;;15.10;6.55;;;;;;;8.14;86.76;99753.48;1624996;88;21237;-71
2021/03/17 02:50:54;;;;;;;13.03;6.30;;;;;;;8.14;86.78;99761.78;1620009;88;21309;-70
2021/03/17 02:53:28;;;;;;;10.80;4.87;;;;;;;8.12;86.67;99761.77;1604014;88;21291;-71
2021/03/17 02:56:12;;;;;;;10.90;5.47;;;;;;;8.13;86.65;99768.41;1630398;87;21862;-72
2021/03/17 02:58:47;;;;;;;12.05;6.08;;;;;;;8.11;86.58;99773.39;1648839;87;21366;-71
2021/03/17 03:01:19;;;;;;;13.83;5.97;;;;;;;8.06;86.50;99772.51;1609872;87;21218;-70
2021/03/17 03:03:52;;;;;;;18.30;6.37;;;;;;;8.02;86.51;99776.92;1596414;90;21759;-72
2021/03/17 03:06:26;;;;;;;12.05;6.15;;;;;;;8.00;86.50;99785.47;1602320;88;21245;-72
2021/03/17 03:08:58;;;;;;;;;;;;;;;8.01;86.49;99782.14;1625881;88;21248;-73
2021/03/17 03:11:31;;;;;;;14.03;6.30;;;;;;;7.95;86.46;99788.20;1617096;88;20204;-74
2021/03/17 03:14:05;;;;;;;12.77;6.07;;;;;;;7.88;86.40;99782.61;1623512;88;21240;-72
2021/03/17 03:16:38;;;;;;;10.50;4.60;;;;;;;7.81;86.34;99793.91;1616786;88;21352;-74
2021/03/17 03:19:13;;;;;;;15.48;6.20;;;;;;;7.72;86.24;99792.71;1626124;88;21434;-72
2021/03/17 03:21:45;;;;;;;18.70;5.97;;;;;;;7.65;86.32;99787.97;1629205;87;21236;-71
2021/03/17 03:24:19;;;;;;;13.10;5.00;;;;;;;7.62;86.38;99790.42;1600657;89;21223;-70
2021/03/17 03:26:57;;;;;;;12.75;4.87;;;;;;;7.59;86.41;99791.78;1600594;88;21258;-71
2021/03/17 03:29:33;;;;;;;16.50;5.03;;;;;;;7.56;86.34;99797.84;1627766;85;21406;-72
2021/03/17 03:32:08;;;;;;;11.88;4.90;;;;;;;7.52;86.23;99797.23;1616155;88;21238;-72
2021/03/17 03:34:41;;;;;;;10.32;4.97;;;;;;;7.45;86.21;99797.47;1625057;88;21789;-73
2021/03/17 03:37:15;;;;;;;10.45;4.47;;;;;;;7.42;86.25;99795.22;1602418;88;21236;-73
2021/03/17 03:39:48;;;;;;;9.68;5.17;;;;;;;7.41;86.20;99799.64;1625973;87;21391;-74
2021/03/17 03:42:20;;;;;;;11.48;5.35;;;;;;;7.40;86.06;99796.57;1636748;87;21423;-72
2021/03/17 03:44:53;;;;;;;11.03;5.70;;;;;;;7.38;85.98;99798.23;1626138;88;21228;-77
2021/03/17 03:47:28;;;;;;;15.98;6.17;;;;;;;7.36;85.82;99803.73;1644463;87;21852;-80
2021/03/17 03:50:01;;;;;;;20.20;7.12;;;;;;;7.36;85.72;99797.64;1623518;88;21743;-73
2021/03/17 03:53:00;;;;;;;16.02;5.55;;;;;;;7.39;85.46;99797.67;1612681;88;21222;-74
2021/03/17 03:55:57;;;;;;;14.60;6.03;;;;;;;7.39;85.22;99794.91;1602569;88;21264;-71
2021/03/17 03:58:50;;;;;;;12.35;5.97;;;;;;;7.36;85.04;99787.17;1626424;88;21243;-74
2021/03/17 04:01:41;;;;;;;17.52;6.12;;;;;;;7.39;84.81;99793.53;1626438;88;21678;-75
2021/03/17 04:04:17;;;;;;;14.53;5.58;;;;;;;7.41;84.69;99794.94;1623446;88;21837;-73
2021/03/17 04:06:53;;;;;;;13.48;5.35;;;;;;;7.49;84.44;99791.72;1626081;87;21268;-74
2021/03/17 04:09:48;;;;;;;11.18;5.37;;;;;;;7.52;84.09;99787.03;1626059;87;21420;-74
2021/03/17 04:12:22;;;;;;;9.93;5.35;;;;;;;7.57;83.99;99793.14;1626138;88;22139;-74
2021/03/17 04:14:59;;;;;;;12.53;5.12;;;;;;;7.64;83.82;99799.27;1626995;87;21240;-74
2021/03/17 04:17:50;;;;;;;10.38;5.22;;;;;;;7.71;83.62;99794.38;1636757;85;21397;-72
2021/03/17 04:20:36;;;;;;;13.22;4.83;;;;;;;7.78;83.46;99801.89;1632402;85;21351;-70
2021/03/17 04:23:11;;;;;;;10.78;4.87;;;;;;;7.86;83.37;99803.63;1623289;88;21292;-72
2021/03/17 04:25:47;;;;;;;9.90;4.85;;;;;;;7.98;83.14;99809.79;1617662;88;21297;-72
2021/03/17 04:28:25;;;;;;;12.90;5.90;;;;;;;8.09;82.96;99807.92;1599166;90;21258;-73
2021/03/17 04:31:00;;;;;;;8.03;5.08;;;;;;;8.20;82.70;99806.92;1598917;90;21253;-74
2021/03/17 04:33:33;;;;;;;11.57;4.80;;;;;;;8.24;82.32;99810.27;1598994;90;21250;-72
2021/03/17 04:36:06;;;;;;;8.23;4.40;;;;;;;8.27;81.98;99800.03;1598932;88;21257;-69
2021/03/17 04:38:38;;;;;;;12.98;5.35;;;;;;;8.28;81.64;99801.73;1618184;88;21269;-71
2021/03/17 04:41:11;;;;;;;16.93;5.62;;;;;;;8.29;81.51;99810.30;1623653;87;21269;-73
2021/03/17 04:43:44;;;;;;;13.40;4.53;;;;;;;8.25;81.31;99807.78;1623467;88;21213;-73
2021/03/17 04:46:16;;;;;;;10.28;5.55;;;;;;;8.24;81.40;99817.17;1623608;88;21311;-73
2021/03/17 04:48:49;;;;;;;13.43;6.40;;;;;;;8.24;81.40;99817.17;1623627;88;21236;-73
2021/03/17 04:51:22;;;;;;;10.63;5.40;;;;;;;8.25;81.07;99817.45;1620488;88;21303;-74
2021/03/17 04:53:55;;;;;;;8.90;4.95;;;;;;;8.27;80.66;99814.43;1643203;87;21276;-70
2021/03/17 04:56:27;;;;;;;10.80;6.00;;;;;;;8.30;80.75;99818.03;1585435;90;21234;-69
2021/03/17 04:59:01;;;;;;;12.65;6.92;;;;;;;8.24;80.41;99812.18;1598922;88;21280;-73
2021/03/17 05:01:35;;;;;;;12.78;7.22;;;;;;;8.15;80.39;99820.68;1599031;88;21249;-71
2021/03/17 05:04:08;;;;;;;11.25;6.60;;;;;;;8.10;80.60;99818.72;1624131;88;21750;-71
2021/03/17 05:06:44;;;;;;;12.95;6.47;;;;;;;8.12;80.44;99815.66;1623367;88;21264;-71
2021/03/17 05:09:18;;;;;;;8.25;5.67;;;;;;;8.23;80.49;99822.43;1607987;87;21255;-71
2021/03/17 05:11:51;;;;;;;12.78;7.35;;;;;;;8.34;80.50;99831.05;1610393;88;21291;-73
2021/03/17 05:14:27;;;;;;;15.32;7.15;;;;;;;8.33;80.13;99829.38;1614343;87;21249;-73
2021/03/17 05:17:06;;;;;;;12.03;7.80;;;;;;;8.36;80.48;99820.56;1623589;88;21774;-73
2021/03/17 05:19:39;;;;;;;16.42;6.92;;;;;;;8.37;80.47;99821.38;1603309;88;21796;-74
2021/03/17 05:22:12;;;;;;;16.62;7.67;;;;;;;8.39;80.19;99821.40;1603419;88;21781;-75
2021/03/17 05:24:45;;;;;;;15.13;7.90;;;;;;;8.38;80.06;99825.84;1608309;88;21785;-74
2021/03/17 05:27:22;;;;;;;22.32;7.75;;;;;;;8.36;80.45;99828.02;1600206;88;21181;-74
2021/03/17 05:29:55;;;;;;;18.92;8.38;;;;;;;8.28;80.26;99829.91;1598361;88;21274;-71
2021/03/17 05:32:28;;;;;;;12.90;6.08;;;;;;;8.32;80.37;99823.58;1608342;88;21215;-73
2021/03/17 05:35:07;;;;;;;11.10;5.78;;;;;;;8.37;80.26;99831.91;1593348;89;21776;-72
2021/03/17 05:37:41;;;;;;;12.15;5.08;;;;;;;8.38;80.12;99828.03;1595060;87;21292;-72
2021/03/17 05:40:18;;;;;;;10.15;4.90;;;;;;;8.45;80.07;99830.01;1605311;87;21299;-78
2021/03/17 05:42:50;;;;;;;10.55;6.20;;;;;;;8.55;80.22;99830.61;1635001;86;21274;-78
2021/03/17 05:45:23;;;;;;;;;;;;;;;8.81;80.73;99837.38;1634408;87;21181;-73
2021/03/17 05:47:57;;;;;;;13.83;5.85;;;;;;;9.18;80.57;99842.80;1623345;87;20715;-74
2021/03/17 05:50:30;;;;;;;14.70;6.80;;;;;;;9.49;79.85;99852.27;1629603;87;21367;-73
2021/03/17 05:53:07;;;;;;;9.30;4.60;;;;;;;9.72;79.22;99848.98;1615545;88;21380;-75
2021/03/17 05:55:40;;;;;;;8.83;4.12;;;;;;;9.97;78.36;99851.76;1621259;88;21240;-73
2021/03/17 05:58:13;;;;;;;7.90;4.47;;;;;;;10.21;77.64;99860.39;1635091;87;21291;-71
2021/03/17 06:00:46;;;;;;;8.03;4.30;;;;;;;10.46;76.70;99854.81;1611498;87;21449;-74
2021/03/17 06:03:19;;;;;;;9.98;4.62;;;;;;;10.70;76.14;99846.96;1634761;87;21213;-76
2021/03/17 06:05:53;;;;;;;8.03;3.60;;;;;;;10.92;75.51;99837.73;1627689;85;21422;-71
2021/03/17 06:08:27;;;;;;;8.40;4.47;;;;;;;11.17;74.74;99849.27;1606900;88;21214;-74
2021/03/17 06:10:59;;;;;;;8.50;3.58;;;;;;;11.39;73.83;99849.17;1648482;87;21751;-75
2021/03/17 06:13:32;;;;;;;8.65;4.20;;;;;;;11.55;71.80;99852.12;1600776;88;21743;-68
2021/03/17 06:16:05;;;;;;;9.33;4.40;;;;;;;11.58;72.15;99852.98;1591112;90;21392;-70
2021/03/17 06:18:45;;;;;;;6.83;3.60;;;;;;;11.73;71.06;99855.64;1641589;87;21784;-74
2021/03/17 06:21:21;;;;;;;10.60;3.95;;;;;;;11.68;70.56;99864.59;1634760;87;21753;-70
2021/03/17 06:23:56;;;;;;;8.15;3.17;;;;;;;11.70;70.44;99863.19;1634901;87;21213;-72
2021/03/17 06:26:28;;;;;;;6.37;3.35;;;;;;;11.72;69.24;99865.66;1633954;87;21223;-73
2021/03/17 06:29:02;;;;;;;7.85;3.52;;;;;;;11.57;69.60;99869.33;1636348;87;21729;-74
2021/03/17 06:31:34;;;;;;;;;;;;;;;11.30;68.97;99867.55;1641823;87;21900;-74
2021/03/17 06:34:07;;;;;;;13.95;5.17;;;;;;;10.97;69.63;99864.10;1632512;87;20207;-73
2021/03/17 06:36:55;;;;;;;8.13;3.75;;;;;;;10.87;70.46;99866.91;1631287;87;21222;-71
2021/03/17 06:39:35;;;;;;;6.17;3.00;;;;;;;10.76;70.33;99861.68;1641311;87;21750;-73
2021/03/17 06:42:09;;;;;;;7.95;3.60;;;;;;;10.79;71.56;99861.94;1633437;87;21311;-71
2021/03/17 06:44:41;;;;;;;6.90;3.75;;;;;;;10.99;71.81;99854.92;1582570;88;21241;-69
2021/03/17 06:47:22;;;;;;;8.70;5.15;;;;;;;11.14;71.25;99858.19;1630727;86;21232;-70
2021/03/17 06:49:55;;;;;;;11.57;4.72;;;;;;;11.27;70.83;99854.24;1630439;87;21276;-70
2021/03/17 06:52:33;;;;;;;7.87;3.92;;;;;;;11.49;71.17;99853.84;1582281;90;22021;-70
2021/03/17 06:55:18;;;;;;;9.18;4.55;;;;;;;11.74;70.99;99855.09;1633545;87;21240;-68
2021/03/17 06:57:53;;;;;;;10.50;4.97;;;;;;;12.00;70.64;99862.97;1608164;87;21301;-69
2021/03/17 07:00:34;;;;;;;11.70;4.37;;;;;;;12.20;70.12;99860.55;1636471;87;21300;-72
2021/03/17 07:03:14;;;;;;;6.90;4.42;;;;;;;12.34;69.16;99856.80;1608350;88;21238;-68
2021/03/17 07:05:48;;;;;;;13.68;5.72;;;;;;;12.34;67.71;99866.55;1631114;87;21236;-68
2021/03/17 07:08:32;;;;;;;7.40;5.25;;;;;;;12.21;68.44;99858.88;1646278;87;21273;-68
2021/03/17 07:11:04;;;;;;;9.45;3.83;;;;;;;12.15;68.71;99864.77;1632949;85;21336;-71
2021/03/17 07:13:38;;;;;;;7.58;3.90;;;;;;;12.02;68.56;99864.04;1636791;87;21198;-70
2021/03/17 07:16:11;;;;;;;5.50;3.10;;;;;;;11.92;68.11;99873.88;1627443;87;21217;-74
2021/03/17 07:18:45;;;;;;;10.98;3.77;;;;;;;11.85;67.70;99863.61;1632472;87;21366;-70
2021/03/17 07:21:18;;;;;;;11.12;5.85;;;;;;;11.84;67.95;99864.19;1633410;85;21237;-69
2021/03/17 07:23:52;;;;;;;8.48;3.72;;;;;;;11.88;68.42;99874.17;1613795;88;21750;-68
2021/03/17 07:26:31;;;;;;;6.70;3.70;;;;;;;11.89;67.89;99874.44;1631102;87;21251;-70
2021/03/17 07:29:16;;;;;;;7.28;4.10;;;;;;;11.83;67.66;99875.05;1601410;88;21330;-71
2021/03/17 07:31:50;;;;;;;15.93;4.42;;;;;;;11.79;68.07;99875.92;1607261;88;21293;-71
2021/03/17 07:34:28;;;;;;;7.22;4.67;;;;;;;11.73;68.39;99877.89;1607256;88;21285;-72
2021/03/17 07:37:07;;;;;;;10.45;5.05;;;;;;;11.66;67.84;99881.55;1610817;88;21297;-69
2021/03/17 07:39:42;;;;;;;11.28;4.03;;;;;;;11.58;68.38;99879.90;1606823;88;21255;-70
2021/03/17 07:42:14;;;;;;;15.48;4.42;;;;;;;11.50;68.80;99878.55;1644990;87;21346;-72
2021/03/17 07:44:48;;;;;;;14.65;5.30;;;;;;;11.43;68.91;99883.59;1609880;88;21253;-71
2021/03/17 07:47:20;;;;;;;11.57;5.20;;;;;;;11.35;69.21;99880.03;1613812;88;21232;-72
2021/03/17 07:49:54;;;;;;;9.30;4.78;;;;;;;11.26;69.20;99887.28;1616848;88;21401;-72
2021/03/17 07:52:30;;;;;;;14.03;5.53;;;;;;;11.22;69.81;99882.59;1588934;88;21758;-71
2021/03/17 07:55:10;;;;;;;15.30;5.12;;;;;;;11.18;70.19;99883.72;1623067;88;22238;-68
2021/03/17 07:57:42;;;;;;;10.98;4.80;;;;;;;11.10;70.28;99887.64;1590603;88;21271;-74
2021/03/17 08:00:18;;;;;;;9.43;4.70;;;;;;;11.01;70.31;99890.17;1612092;88;21248;-72
2021/03/17 08:02:52;;;;;;;13.35;5.17;;;;;;;10.91;70.39;99887.45;1605948;88;21288;-72
2021/03/17 08:05:28;;;;;;;10.43;4.53;;;;;;;10.89;70.55;99886.06;1609792;88;21364;-71
2021/03/17 08:08:02;;;;;;;13.18;4.78;;;;;;;10.97;70.95;99886.32;1633994;87;22129;-68
2021/03/17 08:10:41;;;;;;;9.45;4.65;;;;;;;11.03;70.47;99878.24;1632559;87;21432;-71
2021/03/17 08:13:15;;;;;;;12.95;4.58;;;;;;;11.04;70.41;99873.50;1634821;87;21288;-72
2021/03/17 08:15:48;;;;;;;6.03;3.65;;;;;;;11.08;70.10;99880.97;1602904;87;21278;-71
2021/03/17 08:18:38;;;;;;;9.87;3.83;;;;;;;11.05;69.33;99878.78;1618539;87;21294;-72
2021/03/17 08:21:11;;;;;;;8.60;3.98;;;;;;;11.04;69.16;99891.02;1627988;87;22189;-73
2021/03/17 08:23:51;;;;;;;23.32;5.90;;;;;;;11.08;68.69;99890.70;1598093;88;21388;-74
2021/03/17 08:26:29;;;;;;;14.70;6.25;;;;;;;11.11;69.11;99890.14;1647746;87;21291;-71
2021/03/17 08:29:02;;;;;;;15.53;5.97;;;;;;;11.12;69.52;99900.14;1614015;88;21370;-74
2021/03/17 08:31:45;;;;;;;10.77;4.83;;;;;;;11.14;69.76;99901.25;1637792;87;21725;-70
2021/03/17 08:34:24;;;;;;;16.93;5.97;;;;;;;11.13;69.79;99905.96;1634970;87;21307;-74
2021/03/17 08:37:13;;;;;;;19.57;6.17;;;;;;;11.08;69.87;99903.77;1641132;87;21506;-74
2021/03/17 08:39:49;;;;;;;13.55;5.03;;;;;;;11.01;69.97;99902.67;1641564;87;21260;-73
2021/03/17 08:42:35;;;;;;;15.03;5.97;;;;;;;10.96;70.53;99904.64;1640121;87;21264;-74
2021/03/17 08:45:20;;;;;;;11.55;5.10;;;;;;;10.85;70.59;99901.08;1639329;87;21231;-71
2021/03/17 08:47:59;;;;;;;13.83;4.97;;;;;;;10.76;70.63;99906.91;1636926;87;21276;-73
2021/03/17 08:50:33;;;;;;;9.00;4.28;;;;;;;10.65;70.77;99908.03;1640644;87;21200;-71
2021/03/17 08:53:06;;;;;;;;;;;;;;;10.59;70.91;99905.00;1642349;87;21745;-74
2021/03/17 08:55:40;;;;;;;11.85;4.05;;;;;;;10.54;70.74;99908.34;1641387;87;20233;-75
2021/03/17 08:58:24;;;;;;;12.75;5.40;;;;;;;10.40;70.56;99908.08;1599288;89;21854;-76
2021/03/17 09:01:32;;;;;;;26.07;5.87;;;;;;;10.32;70.53;99913.34;1636446;87;21264;-76
2021/03/17 09:04:03;;;;;;;25.72;7.22;;;;;;;10.21;70.96;99902.82;1549140;91;21240;-73
2021/03/17 09:06:41;;;;;;;15.15;4.83;;;;;;;10.19;71.58;99909.20;1531571;90;21301;-72
2021/03/17 09:09:18;;;;;;;10.98;4.03;;;;;;;10.15;71.29;99916.41;1537066;90;21246;-69
2021/03/17 09:11:51;;;;;;;17.65;5.33;;;;;;;10.14;71.45;99924.45;1636832;87;21323;-75
2021/03/17 09:14:27;;;;;;;10.03;4.33;;;;;;;10.14;71.62;99917.52;1644850;87;21390;-72
2021/03/17 09:17:13;;;;;;;39.35;7.47;;;;;;;10.18;71.72;99921.96;1631306;87;22036;-73
2021/03/17 09:20:17;;;;;;;14.78;5.20;;;;;;;10.23;71.92;99918.66;1631595;87;21243;-74
2021/03/17 09:23:02;;;;;;;22.17;7.10;;;;;;;10.35;72.07;99916.40;1635946;87;21793;-77
2021/03/17 09:25:50;;;;;;;24.43;8.65;;;;;;;10.39;71.97;99914.73;1636852;87;21231;-74
2021/03/17 09:29:26;;;;;;;;;;;;;;;;;;;;;
2021/03/17 09:31:43;;;;;;;15.45;5.33;;;;;;;10.51;72.04;99915.86;1627456;87;21731;-74
2021/03/17 09:34:27;;;;;;;17.30;5.85;;;;;;;10.56;71.90;99918.06;1608638;87;21792;-74
2021/03/17 09:37:11;;;;;;;18.27;5.58;;;;;;;10.61;71.50;99917.21;1630532;87;21331;-74
2021/03/17 09:39:50;;;;;;;9.33;4.47;;;;;;;10.63;71.60;99920.53;1633096;87;21450;-73
2021/03/17 09:42:26;;;;;;;19.95;5.90;;;;;;;10.67;71.30;99922.48;1596537;88;21281;-73
2021/03/17 09:45:04;;;;;;;18.05;5.30;;;;;;;10.72;71.16;99912.77;1639049;87;21952;-73
2021/03/17 09:47:37;;;;;;;12.03;4.80;;;;;;;10.70;70.70;99915.55;1607078;87;21261;-75
2021/03/17 09:50:19;;;;;;;10.60;4.42;;;;;;;10.65;70.68;99914.16;1653307;87;21426;-73
2021/03/17 09:52:51;;;;;;;19.85;4.92;;;;;;;10.50;71.14;99921.95;1635494;87;21232;-75
2021/03/17 09:55:35;;;;;;;12.05;4.22;;;;;;;10.40;71.59;99922.52;1640258;85;21265;-72
2021/03/17 09:58:11;;;;;;;13.28;4.62;;;;;;;10.39;71.78;99921.68;1647739;87;21778;-70
2021/03/17 10:00:48;;;;;;;12.85;4.78;;;;;;;10.35;71.69;99927.50;1606653;88;21245;-75
2021/03/17 10:03:42;;;;;;;21.35;5.83;;;;;;;10.24;71.96;99924.47;1598427;89;21269;-76
2021/03/17 10:06:26;;;;;;;21.17;5.83;;;;;;;10.19;72.43;99923.08;1622303;88;21359;-75
2021/03/17 10:09:01;;;;;;;20.85;3.62;;;;;;;10.27;73.05;99925.86;1629875;87;21251;-72
2021/03/17 10:11:33;;;;;;;17.12;4.50;;;;;;;10.34;72.42;99927.22;1634291;87;21466;-68
2021/03/17 10:14:17;;;;;;;16.85;4.92;;;;;;;10.37;72.21;99928.07;1636577;85;22343;-70
2021/03/17 10:16:57;;;;;;;14.60;4.90;;;;;;;10.41;72.10;99932.51;1630716;87;21724;-75
2021/03/17 10:19:59;;;;;;;15.95;5.12;;;;;;;10.42;72.16;99935.55;1637747;87;21313;-72
2021/03/17 10:22:39;;;;;;;14.93;4.60;;;;;;;10.41;72.20;99932.51;1633550;87;21724;-74
2021/03/17 10:25:18;;;;;;;13.38;4.87;;;;;;;10.36;72.55;99938.05;1640077;86;21293;-74
2021/03/17 10:28:05;;;;;;;21.62;5.50;;;;;;;10.30;72.84;99937.23;1655856;86;21455;-72
2021/03/17 10:30:55;;;;;;;13.32;5.72;;;;;;;10.20;73.58;99928.90;1650464;86;21749;-75
2021/03/17 10:33:37;;;;;;;14.45;6.20;;;;;;;10.18;74.38;99934.44;1597520;88;21280;-73
2021/03/17 10:36:15;;;;;;;13.72;5.67;;;;;;;10.18;74.81;99929.73;1661830;86;21265;-73
2021/03/17 10:38:53;;;;;;;9.83;4.72;;;;;;;10.17;75.17;99933.63;1659985;86;21690;-74
2021/03/17 10:41:47;;;;;;;9.43;3.92;;;;;;;10.25;75.63;99931.67;1655732;86;21229;-73
2021/03/17 10:44:25;;;;;;;15.23;6.72;;;;;;;10.33;75.57;99933.89;1659943;85;21301;-72
2021/03/17 10:47:12;;;;;;;12.23;7.37;;;;;;;10.33;76.07;99928.34;1644896;86;21277;-74
2021/03/17 10:49:48;;;;;;;10.65;5.70;;;;;;;10.36;76.43;99925.56;1652948;86;21379;-71
2021/03/17 10:52:24;;;;;;;17.98;7.22;;;;;;;10.35;76.55;99920.56;1672299;86;21225;-70
2021/03/17 10:54:58;;;;;;;11.95;5.30;;;;;;;10.39;76.51;99922.25;1660950;86;21202;-73
2021/03/17 10:57:32;;;;;;;12.20;5.33;;;;;;;10.46;76.43;99919.45;1628213;87;21749;-74
2021/03/17 11:00:21;;;;;;;13.43;6.40;;;;;;;10.55;76.37;99919.72;1649912;86;21538;-70
2021/03/17 11:02:58;;;;;;;12.93;5.92;;;;;;;10.60;76.19;99921.11;1618835;88;21530;-72
2021/03/17 11:05:34;;;;;;;17.73;6.40;;;;;;;10.72;75.92;99918.33;1654045;86;21781;-71
2021/03/17 11:08:10;;;;;;;11.12;5.00;;;;;;;10.79;75.86;99918.02;1645783;86;21714;-71
2021/03/17 11:10:57;;;;;;;11.30;5.03;;;;;;;10.82;75.23;99916.89;1617231;88;21698;-70
2021/03/17 11:13:34;;;;;;;16.05;4.45;;;;;;;10.76;74.79;99919.41;1661068;86;21281;-70
2021/03/17 11:16:12;;;;;;;15.28;5.65;;;;;;;10.76;75.04;99921.37;1634187;86;21279;-68
2021/03/17 11:18:54;;;;;;;21.05;7.28;;;;;;;10.83;74.81;99909.41;1655389;86;21285;-67
2021/03/17 11:21:34;;;;;;;14.63;8.53;;;;;;;10.87;74.35;99902.16;1654395;86;21228;-69
2021/03/17 11:24:22;;;;;;;17.32;7.30;;;;;;;10.89;74.21;99910.48;1653993;86;21304;-69
2021/03/17 11:26:55;;;;;;;16.93;7.25;;;;;;;10.90;74.18;99910.75;1653412;86;21324;-70
2021/03/17 11:29:30;;;;;;;22.00;7.15;;;;;;;10.89;74.11;99912.45;1659211;86;21240;-67
2021/03/17 11:32:10;;;;;;;11.80;4.95;;;;;;;10.92;73.77;99922.44;1644990;87;21271;-68
2021/03/17 11:34:42;;;;;;;12.10;4.67;;;;;;;10.95;73.38;99911.31;1657453;86;22730;-71
2021/03/17 11:37:15;;;;;;;12.88;4.95;;;;;;;10.89;72.86;99925.75;1656902;86;21241;-70
2021/03/17 11:39:48;;;;;;;13.83;5.83;;;;;;;10.78;72.44;99916.36;1660418;86;21774;-72
2021/03/17 11:42:21;;;;;;;11.10;5.12;;;;;;;10.61;72.53;99909.73;1668889;86;21247;-76
2021/03/17 11:44:53;;;;;;;9.35;4.60;;;;;;;10.46;72.94;99913.90;1658652;86;21253;-71
2021/03/17 11:47:27;;;;;;;5.60;4.00;;;;;;;10.34;73.10;99920.29;1647416;86;21430;-71
2021/03/17 11:49:59;;;;;;;;;;;;;;;10.22;73.24;99916.15;1659522;86;21715;-70
2021/03/17 11:52:31;;;;;;;7.37;4.20;;;;;;;10.20;73.59;99915.57;1651859;86;20204;-71
2021/03/17 11:55:05;;;;;;;16.37;4.67;;;;;;;10.21;73.78;99916.69;1650111;86;21695;-71
2021/03/17 11:57:38;;;;;;;10.23;4.87;;;;;;;10.22;73.76;99912.80;1660847;86;21229;-69
2021/03/17 12:00:14;;;;;;;7.08;3.30;;;;;;;10.21;73.59;99911.14;1653842;86;21268;-70
2021/03/17 12:02:48;;;;;;;5.62;3.33;;;;;;;10.16;73.31;99904.20;1671838;86;21301;-70
2021/03/17 12:05:21;;;;;;;6.97;3.47;;;;;;;10.07;73.42;99902.26;1672578;86;21292;-71
2021/03/17 12:07:54;;;;;;;9.60;4.62;;;;;;;10.06;73.54;99895.90;1672228;86;21635;-71
2021/03/17 12:10:29;;;;;;;10.65;4.70;;;;;;;10.13;73.60;99912.25;1672209;86;21204;-69
2021/03/17 12:13:02;;;;;;;9.65;3.42;;;;;;;10.17;73.70;99908.66;1672396;86;21324;-71
2021/03/17 12:15:34;;;;;;;7.58;3.55;;;;;;;10.16;73.47;99916.68;1667506;86;21308;-71
2021/03/17 12:18:08;;;;;;;7.70;3.20;;;;;;;10.10;73.28;99909.47;1652237;86;21260;-72
2021/03/17 12:20:42;;;;;;;13.72;4.05;;;;;;;10.05;73.45;99912.27;1657349;86;21233;-70
2021/03/17 12:23:18;;;;;;;7.60;3.80;;;;;;;10.02;73.54;99908.61;1655547;86;21213;-72
2021/03/17 12:25:53;;;;;;;6.12;3.62;;;;;;;10.00;73.47;99910.84;1659234;86;21224;-70